createdAt,value
2022-08-09T00:00:04.357Z,3.83
2022-08-09T00:02:33.506Z,3.05
2022-08-09T00:06:15.584Z,2.80
2022-08-09T00:07:49.254Z,2.90
2022-08-09T00:10:21.367Z,2.70
2022-08-09T00:12:53.021Z,2.97
2022-08-09T00:15:20.457Z,3.17
2022-08-09T00:18:05.839Z,3.00
2022-08-09T00:20:42.486Z,3.13
2022-08-09T00:23:56.663Z,3.13
2022-08-09T00:26:06.026Z,2.88
2022-08-09T00:28:34.778Z,2.90
2022-08-09T00:31:30.709Z,2.92
2022-08-09T00:33:50.971Z,3.13
2022-08-09T00:36:18.888Z,3.03
2022-08-09T00:38:51.288Z,3.00
2022-08-09T00:44:09.933Z,3.10
2022-08-09T00:44:13.717Z,2.90
2022-08-09T00:46:57.415Z,3.13
2022-08-09T00:49:31.069Z,2.78
2022-08-09T00:51:58.381Z,2.90
2022-08-09T00:54:35.995Z,3.08
2022-08-09T00:57:10.424Z,2.67
2022-08-09T00:59:41.512Z,2.78
2022-08-09T01:02:16.988Z,2.45
2022-08-09T01:04:51.218Z,2.63
2022-08-09T01:07:37.974Z,3.30
2022-08-09T01:10:28.848Z,2.95
2022-08-09T01:13:00.131Z,2.80
2022-08-09T01:15:31.329Z,2.70
2022-08-09T01:18:09.219Z,3.03
2022-08-09T01:20:49.593Z,2.55
2022-08-09T01:24:01.780Z,2.75
2022-08-09T01:26:38.323Z,2.90
2022-08-09T01:29:06.312Z,3.03
2022-08-09T01:32:28.065Z,2.70
2022-08-09T01:34:23.390Z,2.92
2022-08-09T01:36:51.143Z,2.78
2022-08-09T01:39:19.513Z,2.92
2022-08-09T01:41:55.924Z,2.70
2022-08-09T01:44:29.884Z,3.03
2022-08-09T01:46:58.984Z,3.15
2022-08-09T01:49:38.700Z,2.78
2022-08-09T01:52:09.378Z,2.95
2022-08-09T01:54:40.427Z,3.10
2022-08-09T01:57:12.091Z,2.65
2022-08-09T01:59:51.442Z,3.10
2022-08-09T02:02:20.753Z,3.47
2022-08-09T02:04:50.813Z,2.97
2022-08-09T02:08:38.707Z,2.40
2022-08-09T02:10:13.109Z,2.70
2022-08-09T02:12:43.895Z,3.25
2022-08-09T02:15:16.918Z,3.00
2022-08-09T02:18:00.930Z,3.00
2022-08-09T02:20:37.082Z,2.80
2022-08-09T02:23:08.511Z,2.75
2022-08-09T02:25:42.442Z,2.75
2022-08-09T02:28:27.183Z,2.58
2022-08-09T02:30:59.276Z,2.50
2022-08-09T02:33:58.276Z,3.10
2022-08-09T02:36:19.682Z,2.75
2022-08-09T02:38:50.663Z,2.63
2022-08-09T02:41:25.665Z,2.60
2022-08-09T02:43:58.963Z,2.80
2022-08-09T02:46:29.184Z,2.78
2022-08-09T02:49:01.044Z,2.72
2022-08-09T02:51:33.053Z,2.50
2022-08-09T02:54:08.691Z,2.72
2022-08-09T02:56:37.801Z,3.20
2022-08-09T02:59:07.978Z,3.13
2022-08-09T03:01:43.341Z,3.00
2022-08-09T03:04:28.767Z,2.97
2022-08-09T03:06:59.796Z,3.50
2022-08-09T03:09:43.015Z,2.65
2022-08-09T03:12:13.269Z,2.90
2022-08-09T03:14:43.011Z,2.78
2022-08-09T03:17:16.356Z,2.65
2022-08-09T03:19:59.481Z,3.10
2022-08-09T03:22:31.256Z,2.72
2022-08-09T03:25:13.598Z,3.35
2022-08-09T03:27:48.891Z,2.92
2022-08-09T03:30:29.877Z,3.17
2022-08-09T03:36:11.857Z,3.08
2022-08-09T03:38:29.157Z,3.13
2022-08-09T03:40:57.291Z,2.67
2022-08-09T03:43:24.041Z,3.08
2022-08-09T03:46:13.680Z,2.92
2022-08-09T03:48:42.942Z,2.92
2022-08-09T03:51:44.445Z,2.97
2022-08-09T03:54:11.029Z,3.33
2022-08-09T03:56:40.951Z,2.90
2022-08-09T03:59:08.818Z,2.78
2022-08-09T04:01:46.748Z,3.15
2022-08-09T04:04:15.331Z,2.90
2022-08-09T04:06:44.034Z,3.60
2022-08-09T04:09:41.802Z,2.97
2022-08-09T04:12:32.164Z,3.17
2022-08-09T04:15:01.798Z,2.90
2022-08-09T04:17:31.346Z,3.28
2022-08-09T04:19:58.219Z,2.92
2022-08-09T04:22:29.723Z,2.83
2022-08-09T04:24:58.734Z,3.25
2022-08-09T04:27:25.790Z,3.58
2022-08-09T04:29:55.911Z,3.30
2022-08-09T04:32:31.461Z,3.20
2022-08-09T04:35:02.100Z,3.10
2022-08-09T04:37:45.263Z,3.63
2022-08-09T04:43:00.451Z,3.53
2022-08-09T04:45:30.439Z,3.42
2022-08-09T04:47:59.450Z,3.28
2022-08-09T04:50:33.696Z,3.15
2022-08-09T04:53:04.375Z,3.17
2022-08-09T04:55:40.300Z,3.53
2022-08-09T04:58:17.968Z,3.20
2022-08-09T05:00:44.893Z,3.47
2022-08-09T05:03:40.550Z,3.10
2022-08-09T05:06:06.794Z,3.33
2022-08-09T05:08:34.443Z,3.20
2022-08-09T05:11:02.490Z,3.50
2022-08-09T05:13:29.488Z,2.88
2022-08-09T05:16:00.186Z,3.45
2022-08-09T05:18:50.777Z,3.33
2022-08-09T05:21:22.949Z,3.70
2022-08-09T05:23:59.988Z,2.92
2022-08-09T05:26:37.191Z,3.70
2022-08-09T05:29:17.490Z,3.30
2022-08-09T05:31:47.551Z,2.95
2022-08-09T05:34:23.229Z,3.25
2022-08-09T05:36:58.752Z,3.88
2022-08-09T05:39:35.579Z,3.55
2022-08-09T05:42:04.633Z,3.28
2022-08-09T05:44:32.866Z,3.67
2022-08-09T05:47:01.491Z,3.30
2022-08-09T05:50:11.072Z,3.30
2022-08-09T05:52:21.290Z,3.67
2022-08-09T05:54:51.702Z,3.50
2022-08-09T05:57:19.292Z,3.20
2022-08-09T05:59:46.260Z,3.47
2022-08-09T06:02:17.147Z,2.92
2022-08-09T06:04:46.120Z,3.00
2022-08-09T06:07:21.190Z,3.10
2022-08-09T06:10:02.049Z,2.92
2022-08-09T06:12:29.988Z,2.75
2022-08-09T06:15:01.071Z,3.15
2022-08-09T06:17:40.519Z,2.90
2022-08-09T06:20:08.460Z,3.20
2022-08-09T06:22:35.667Z,2.67
2022-08-09T06:25:08.760Z,2.63
2022-08-09T06:27:42.216Z,2.40
2022-08-09T06:30:10.487Z,2.58
2022-08-09T06:32:59.558Z,2.80
2022-08-09T06:35:35.681Z,2.78
2022-08-09T06:38:16.041Z,2.58
2022-08-09T06:40:44.338Z,2.58
2022-08-09T06:43:11.539Z,2.40
2022-08-09T06:46:05.040Z,2.40
2022-08-09T06:48:26.206Z,2.50
2022-08-09T06:50:57.721Z,2.03
2022-08-09T06:53:25.340Z,2.20
2022-08-09T06:55:53.709Z,2.55
2022-08-09T06:58:40.867Z,2.00
2022-08-09T07:01:10.667Z,1.63
2022-08-09T07:03:39.510Z,2.20
2022-08-09T07:06:19.621Z,1.98
2022-08-09T07:08:49.519Z,2.30
2022-08-09T07:11:23.406Z,1.95
2022-08-09T07:14:05.156Z,1.60
2022-08-09T07:16:43.207Z,2.00
2022-08-09T07:19:23.133Z,1.98
2022-08-09T07:21:57.882Z,1.77
2022-08-09T07:24:31.860Z,1.55
2022-08-09T07:27:10.869Z,1.80
2022-08-09T07:29:56.963Z,1.50
2022-08-09T07:32:32.246Z,1.98
2022-08-09T07:35:01.048Z,1.90
2022-08-09T07:37:29.654Z,2.05
2022-08-09T07:39:56.400Z,1.60
2022-08-09T07:42:28.830Z,1.85
2022-08-09T07:45:02.646Z,1.52
2022-08-09T07:47:49.628Z,1.60
2022-08-09T07:50:20.747Z,1.50
2022-08-09T07:53:03.064Z,1.60
2022-08-09T07:55:41.391Z,1.80
2022-08-09T07:58:21.559Z,1.92
2022-08-09T08:00:55.703Z,1.77
2022-08-09T08:03:26.817Z,1.40
2022-08-09T08:05:57.945Z,1.40
2022-08-09T08:08:59.781Z,1.63
2022-08-09T08:12:24.966Z,1.60
2022-08-09T08:14:00.886Z,1.70
2022-08-09T08:16:31.812Z,1.45
2022-08-09T08:18:59.719Z,1.70
2022-08-09T08:21:30.293Z,1.30
2022-08-09T08:23:57.136Z,1.52
2022-08-09T08:26:41.987Z,1.80
2022-08-09T08:29:20.238Z,1.23
2022-08-09T08:32:03.435Z,1.45
2022-08-09T08:34:30.904Z,2.03
2022-08-09T08:37:01.252Z,1.58
2022-08-09T08:39:28.422Z,1.73
2022-08-09T08:41:58.881Z,1.42
2022-08-09T08:44:29.185Z,2.20
2022-08-09T08:47:02.516Z,1.20
2022-08-09T08:49:33.450Z,1.65
2022-08-09T08:52:10.420Z,1.38
2022-08-09T08:54:37.944Z,1.23
2022-08-09T08:57:05.604Z,1.60
2022-08-09T08:59:46.850Z,1.50
2022-08-09T09:02:31.899Z,1.30
2022-08-09T09:05:03.142Z,1.27
2022-08-09T09:07:42.405Z,1.40
2022-08-09T09:10:10.954Z,1.50
2022-08-09T09:12:38.085Z,1.40
2022-08-09T09:15:07.416Z,1.35
2022-08-09T09:17:49.353Z,1.30
2022-08-09T09:20:21.264Z,1.33
2022-08-09T09:22:53.654Z,1.55
2022-08-09T09:26:04.877Z,1.30
2022-08-09T09:29:02.842Z,1.27
2022-08-09T09:31:17.244Z,1.50
2022-08-09T09:34:11.635Z,1.63
2022-08-09T09:36:47.004Z,1.25
2022-08-09T09:39:21.516Z,1.65
2022-08-09T09:41:50.003Z,1.17
2022-08-09T09:44:25.920Z,1.65
2022-08-09T09:47:05.661Z,1.25
2022-08-09T09:50:07.035Z,3.13
2022-08-09T09:52:36.417Z,1.10
2022-08-09T09:55:16.356Z,1.50
2022-08-09T09:58:02.767Z,1.25
2022-08-09T10:00:32.017Z,1.20
2022-08-09T10:03:11.535Z,1.40
2022-08-09T10:06:04.104Z,1.27
2022-08-09T10:08:32.032Z,1.90
2022-08-09T10:10:58.982Z,1.40
2022-08-09T10:13:45.245Z,1.70
2022-08-09T10:16:57.200Z,1.13
2022-08-09T10:19:02.659Z,1.23
2022-08-09T10:21:31.450Z,1.45
2022-08-09T10:24:00.611Z,1.33
2022-08-09T10:26:31.166Z,1.40
2022-08-09T10:29:21.289Z,1.40
2022-08-09T10:32:35.659Z,1.45
2022-08-09T10:34:35.798Z,1.27
2022-08-09T10:37:03.103Z,1.10
2022-08-09T10:39:41.006Z,1.50
2022-08-09T10:42:16.350Z,1.20
2022-08-09T10:44:47.918Z,1.27
2022-08-09T10:48:19.315Z,1.60
2022-08-09T10:50:27.073Z,1.40
2022-08-09T10:53:21.145Z,1.40
2022-08-09T10:55:58.668Z,1.73
2022-08-09T10:58:31.446Z,1.55
2022-08-09T11:03:02.889Z,1.40
2022-08-09T11:04:29.933Z,1.30
2022-08-09T11:07:56.985Z,1.80
2022-08-09T11:10:15.407Z,1.35
2022-08-09T11:13:02.364Z,1.80
2022-08-09T11:15:33.677Z,1.45
2022-08-09T11:18:03.631Z,1.20
2022-08-09T11:20:46.170Z,1.40
2022-08-09T11:23:15.030Z,1.40
2022-08-09T11:25:49.274Z,1.10
2022-08-09T11:28:54.404Z,1.42
2022-08-09T11:31:50.385Z,1.40
2022-08-09T11:34:32.924Z,1.13
2022-08-09T11:37:00.239Z,1.23
2022-08-09T11:39:37.935Z,1.17
2022-08-09T11:42:08.367Z,1.15
2022-08-09T11:44:45.144Z,1.30
2022-08-09T11:47:14.609Z,1.40
2022-08-09T11:50:53.049Z,1.38
2022-08-09T11:54:01.696Z,1.67
2022-08-09T11:56:34.459Z,1.20
2022-08-09T11:59:09.269Z,1.52
2022-08-09T12:02:17.540Z,1.17
2022-08-09T12:04:28.913Z,1.30
2022-08-09T12:07:07.751Z,1.23
2022-08-09T12:09:36.285Z,1.15
2022-08-09T12:12:05.517Z,1.38
2022-08-09T12:14:40.871Z,1.15
2022-08-09T12:17:28.178Z,1.23
2022-08-09T12:20:16.763Z,1.35
2022-08-09T12:22:50.843Z,1.23
2022-08-09T12:25:31.922Z,1.35
2022-08-09T12:29:15.615Z,1.35
2022-08-09T12:30:57.841Z,1.25
2022-08-09T12:33:26.454Z,1.30
2022-08-09T12:36:27.746Z,1.20
2022-08-09T12:38:59.435Z,1.10
2022-08-09T12:41:28.055Z,1.40
2022-08-09T12:44:05.283Z,1.25
2022-08-09T12:46:36.219Z,1.25
2022-08-09T12:49:03.626Z,1.30
2022-08-09T12:51:52.681Z,1.33
2022-08-09T12:54:17.264Z,1.52
2022-08-09T12:56:53.785Z,1.40
2022-08-09T12:59:24.025Z,1.20
2022-08-09T13:02:02.253Z,1.23
2022-08-09T13:04:37.786Z,1.05
2022-08-09T13:07:13.898Z,1.30
2022-08-09T13:09:43.289Z,1.10
2022-08-09T13:12:10.308Z,1.20
2022-08-09T13:14:47.258Z,1.48
2022-08-09T13:18:02.576Z,1.27
2022-08-09T13:20:10.712Z,1.38
2022-08-09T13:23:01.684Z,1.50
2022-08-09T13:25:41.818Z,1.13
2022-08-09T13:28:11.412Z,1.15
2022-08-09T13:32:13.951Z,1.00
2022-08-09T13:33:53.873Z,1.30
2022-08-09T13:36:38.919Z,1.40
2022-08-09T13:41:55.967Z,1.20
2022-08-09T13:42:01.339Z,1.38
2022-08-09T13:44:28.768Z,1.10
2022-08-09T13:47:26.714Z,1.30
2022-08-09T13:49:57.265Z,1.05
2022-08-09T13:52:25.739Z,1.30
2022-08-09T13:55:00.629Z,1.48
2022-08-09T13:57:37.199Z,1.00
2022-08-09T14:00:11.184Z,1.02
2022-08-09T14:02:42.499Z,1.30
2022-08-09T14:06:01.414Z,1.10
2022-08-09T14:08:15.889Z,1.27
2022-08-09T14:10:49.136Z,1.00
2022-08-09T14:13:27.635Z,1.33
2022-08-09T14:16:10.979Z,1.30
2022-08-09T14:18:45.150Z,1.20
2022-08-09T14:21:12.512Z,1.05
2022-08-09T14:23:40.738Z,1.20
2022-08-09T14:26:21.222Z,1.35
2022-08-09T14:28:48.006Z,1.05
2022-08-09T14:31:14.774Z,1.13
2022-08-09T14:33:43.636Z,1.00
2022-08-09T14:36:20.646Z,1.30
2022-08-09T14:38:52.741Z,1.27
2022-08-09T14:41:39.771Z,0.90
2022-08-09T14:44:07.177Z,1.88
2022-08-09T14:46:58.274Z,1.38
2022-08-09T14:49:24.613Z,1.15
2022-08-09T14:51:51.551Z,1.05
2022-08-09T14:56:57.854Z,1.05
2022-08-09T14:59:27.172Z,1.08
2022-08-09T15:01:55.230Z,1.13
2022-08-09T15:04:23.702Z,1.30
2022-08-09T15:06:52.898Z,1.17
2022-08-09T15:10:03.178Z,1.08
2022-08-09T15:12:07.770Z,1.50
2022-08-09T15:14:35.214Z,1.10
2022-08-09T15:17:05.719Z,1.08
2022-08-09T15:19:36.257Z,1.40
2022-08-09T15:22:04.533Z,1.35
2022-08-09T15:24:32.478Z,1.30
2022-08-09T15:26:59.798Z,1.20
2022-08-09T15:30:58.761Z,1.00
2022-08-09T15:32:29.753Z,0.95
2022-08-09T15:35:01.265Z,1.10
2022-08-09T15:37:37.724Z,1.17
2022-08-09T15:40:11.465Z,1.45
2022-08-09T15:42:40.821Z,0.90
2022-08-09T15:45:11.726Z,1.42
2022-08-09T15:47:51.450Z,0.98
2022-08-09T15:50:28.970Z,1.00
2022-08-09T15:53:06.954Z,1.10
2022-08-09T15:55:58.906Z,1.17
2022-08-09T15:58:30.829Z,1.13
2022-08-09T16:00:59.729Z,1.02
2022-08-09T16:03:38.322Z,0.93
2022-08-09T16:06:27.396Z,1.00
2022-08-09T16:08:59.252Z,1.05
2022-08-09T16:11:28.054Z,1.00
2022-08-09T16:14:04.909Z,1.05
2022-08-09T16:16:34.489Z,1.55
2022-08-09T16:19:01.634Z,1.20
2022-08-09T16:21:31.750Z,1.70
2022-08-09T16:24:04.707Z,1.30
2022-08-09T16:26:35.126Z,3.25
2022-08-09T16:29:10.802Z,1.10
2022-08-09T16:32:18.418Z,5.35
2022-08-09T16:34:29.041Z,2.25
2022-08-09T16:36:56.034Z,2.05
2022-08-09T16:39:25.669Z,3.17
2022-08-09T16:42:04.075Z,1.17
2022-08-09T16:44:32.165Z,1.50
2022-08-09T16:47:03.901Z,3.80
2022-08-09T16:50:29.571Z,1.05
2022-08-09T16:52:17.871Z,1.60
2022-08-09T16:54:47.345Z,1.08
2022-08-09T16:57:17.010Z,1.10
2022-08-09T16:59:50.304Z,2.85
2022-08-09T17:02:33.734Z,1.30
2022-08-09T17:05:00.718Z,1.58
2022-08-09T17:08:43.072Z,1.05
2022-08-09T17:10:15.832Z,1.52
2022-08-09T17:12:45.007Z,1.00
2022-08-09T17:15:31.176Z,1.10
2022-08-09T17:18:01.516Z,1.10
2022-08-09T17:20:37.470Z,1.00
2022-08-09T17:23:10.558Z,1.25
2022-08-09T17:25:43.137Z,1.35
2022-08-09T17:28:09.867Z,1.00
2022-08-09T17:30:36.977Z,1.17
2022-08-09T17:33:05.059Z,1.00
2022-08-09T17:35:48.609Z,1.10
2022-08-09T17:38:34.126Z,1.30
2022-08-09T17:41:04.134Z,1.10
2022-08-09T17:43:34.775Z,1.75
2022-08-09T17:46:06.736Z,1.13
2022-08-09T17:48:38.485Z,1.65
2022-08-09T17:51:17.635Z,1.42
2022-08-09T17:53:48.253Z,1.50
2022-08-09T17:56:27.416Z,1.30
2022-08-09T17:58:56.092Z,1.08
2022-08-09T18:01:23.683Z,1.30
2022-08-09T18:03:51.368Z,1.27
2022-08-09T18:06:31.286Z,1.20
2022-08-09T18:09:01.120Z,1.38
2022-08-09T18:11:29.265Z,1.30
2022-08-09T18:14:00.571Z,1.30
2022-08-09T18:16:32.547Z,1.00
2022-08-09T18:19:04.177Z,1.10
2022-08-09T18:21:50.447Z,1.10
2022-08-09T18:24:19.586Z,1.10
2022-08-09T18:26:48.195Z,1.10
2022-08-09T18:30:34.565Z,1.08
2022-08-09T18:32:03.680Z,1.10
2022-08-09T18:34:31.874Z,1.20
2022-08-09T18:36:58.771Z,1.90
2022-08-09T18:39:31.891Z,1.10
2022-08-09T18:42:01.282Z,0.90
2022-08-09T18:44:28.299Z,1.10
2022-08-09T18:47:08.221Z,1.23
2022-08-09T18:49:46.299Z,1.35
2022-08-09T18:52:15.763Z,1.10
2022-08-09T18:54:49.669Z,1.30
2022-08-09T18:57:22.110Z,1.58
2022-08-09T18:59:54.344Z,1.17
2022-08-09T19:02:32.751Z,1.23
2022-08-09T19:05:04.258Z,1.15
2022-08-09T19:07:59.161Z,1.20
2022-08-09T19:10:29.318Z,1.10
2022-08-09T19:13:18.853Z,1.30
2022-08-09T19:15:49.959Z,1.10
2022-08-09T19:18:32.530Z,1.27
2022-08-09T19:21:02.554Z,1.30
2022-08-09T19:24:32.301Z,1.20
2022-08-09T19:26:16.487Z,1.20
2022-08-09T19:28:48.896Z,1.10
2022-08-09T19:31:16.830Z,1.17
2022-08-09T19:33:43.759Z,1.10
2022-08-09T19:36:11.810Z,1.17
2022-08-09T19:38:40.106Z,1.20
2022-08-09T19:41:07.042Z,1.10
2022-08-09T19:44:00.301Z,1.30
2022-08-09T19:46:35.412Z,1.50
2022-08-09T19:50:05.109Z,1.58
2022-08-09T19:51:55.287Z,1.27
2022-08-09T19:54:22.916Z,1.15
2022-08-09T19:56:51.827Z,1.35
2022-08-09T19:59:58.902Z,1.48
2022-08-09T20:02:17.097Z,1.48
2022-08-09T20:04:55.596Z,1.60
2022-08-09T20:07:22.806Z,1.27
2022-08-09T20:09:49.659Z,1.20
2022-08-09T20:12:27.475Z,1.50
2022-08-09T20:15:04.515Z,1.70
2022-08-09T20:17:41.440Z,1.30
2022-08-09T20:20:15.404Z,1.48
2022-08-09T20:22:42.912Z,2.22
2022-08-09T20:25:13.086Z,1.70
2022-08-09T20:27:49.372Z,1.50
2022-08-09T20:30:18.069Z,1.50
2022-08-09T20:32:52.805Z,1.30
2022-08-09T20:35:19.926Z,1.42
2022-08-09T20:38:20.965Z,1.50
2022-08-09T20:40:33.586Z,1.25
2022-08-09T20:43:18.993Z,1.25
2022-08-09T20:45:59.628Z,1.33
2022-08-09T20:48:31.675Z,1.40
2022-08-09T20:50:59.342Z,1.30
2022-08-09T20:53:36.613Z,1.42
2022-08-09T20:56:06.797Z,1.50
2022-08-09T20:58:35.884Z,1.63
2022-08-09T21:01:32.895Z,1.67
2022-08-09T21:05:48.823Z,1.45
2022-08-09T21:06:41.450Z,1.50
2022-08-09T21:09:13.422Z,1.58
2022-08-09T21:14:31.233Z,1.70
2022-08-09T21:16:59.370Z,1.70
2022-08-09T21:20:18.155Z,1.55
2022-08-09T21:22:35.600Z,1.35
2022-08-09T21:25:04.601Z,1.40
2022-08-09T21:27:51.331Z,1.80
2022-08-09T21:30:18.897Z,1.45
2022-08-09T21:32:45.751Z,1.65
2022-08-09T21:35:13.902Z,1.33
2022-08-09T21:37:58.766Z,1.80
2022-08-09T21:40:30.638Z,1.55
2022-08-09T21:42:59.795Z,1.40
2022-08-09T21:45:27.983Z,1.60
2022-08-09T21:47:55.530Z,1.63
2022-08-09T21:50:36.171Z,1.77
2022-08-09T21:53:06.410Z,1.60
2022-08-09T21:55:46.518Z,1.60
2022-08-09T21:58:13.575Z,1.40
2022-08-09T22:00:41.730Z,1.30
2022-08-09T22:03:19.151Z,1.55
2022-08-09T22:05:51.114Z,1.70
2022-08-09T22:08:18.422Z,1.63
2022-08-09T22:11:50.291Z,1.70
2022-08-09T22:13:35.838Z,1.70
2022-08-09T22:16:07.169Z,1.50
2022-08-09T22:18:35.168Z,1.90
2022-08-09T22:21:09.313Z,1.80
2022-08-09T22:23:59.440Z,1.65
2022-08-09T22:26:35.603Z,1.40
2022-08-09T22:29:07.614Z,1.58
2022-08-09T22:31:37.425Z,1.90
2022-08-09T22:34:09.866Z,1.60
2022-08-09T22:36:46.429Z,1.77
2022-08-09T22:39:20.549Z,1.63
2022-08-09T22:42:00.599Z,1.45
2022-08-09T22:44:29.912Z,1.77
2022-08-09T22:48:10.515Z,1.67
2022-08-09T22:49:46.743Z,1.40
2022-08-09T22:52:15.719Z,1.42
2022-08-09T22:54:42.593Z,1.60
2022-08-09T22:57:13.922Z,1.85
2022-08-09T22:59:57.612Z,1.77
2022-08-09T23:02:25.841Z,1.42
2022-08-09T23:04:54.704Z,1.67
2022-08-09T23:08:23.173Z,1.80
2022-08-09T23:10:12.395Z,1.67
2022-08-09T23:12:39.169Z,1.70
2022-08-09T23:15:06.489Z,1.80
2022-08-09T23:17:33.484Z,1.65
2022-08-09T23:20:07.832Z,1.40
2022-08-09T23:22:36.495Z,1.60
2022-08-09T23:25:03.490Z,1.80
2022-08-09T23:27:30.233Z,1.55
2022-08-09T23:29:56.978Z,1.58
2022-08-09T23:32:23.737Z,1.60
2022-08-09T23:34:50.571Z,1.63
2022-08-09T23:37:17.730Z,2.15
2022-08-09T23:39:49.883Z,1.75
2022-08-09T23:42:16.651Z,1.50
2022-08-09T23:44:43.378Z,1.60
2022-08-09T23:47:10.121Z,1.80
2022-08-09T23:49:36.885Z,1.83
2022-08-09T23:52:04.330Z,1.80
2022-08-09T23:54:31.068Z,1.85
2022-08-09T23:56:59.489Z,2.00
2022-08-09T23:59:26.442Z,1.90
